Terminal Aerodrome Forecast
Issued by NWS

Home | Current Version | Previous Version | Graphics & Text | Print | Product List | Glossary On
Versions: 1 2 3 4 5 6 7 8 9 10 11 12 13 14 15 16 17
000
FTUS43 KLSX 202320
TAFSUS
TAF
KSUS 202320Z 2100/2124 09007KT P6SM FEW250
     FM210200 VRB02KT P6SM SCT250
     FM211500 09010G17KT P6SM BKN250=

USA.gov is the U.S. government's official web portal to all federal, state and local government web resources and services.